createdAt,value
2018-12-06T00:00:01.739Z,14.37
2018-12-06T00:02:33.508Z,14.50
2018-12-06T00:05:04.952Z,14.40
2018-12-06T00:07:35.543Z,15.10
2018-12-06T00:10:07.246Z,15.67
2018-12-06T00:12:37.874Z,15.80
2018-12-06T00:15:27.890Z,15.40
2018-12-06T00:17:58.469Z,15.20
2018-12-06T00:20:29.063Z,15.17
2018-12-06T00:22:59.652Z,15.10
2018-12-06T00:25:30.214Z,14.83
2018-12-06T00:28:00.813Z,14.50
2018-12-06T00:30:39.206Z,15.40
2018-12-06T00:33:10.026Z,15.07
2018-12-06T00:35:40.606Z,14.37
2018-12-06T00:38:11.180Z,15.53
2018-12-06T00:40:41.982Z,15.70
2018-12-06T00:43:12.585Z,16.40
2018-12-06T00:45:43.158Z,16.13
2018-12-06T00:48:14.055Z,15.60
2018-12-06T00:50:44.634Z,16.60
2018-12-06T00:53:15.202Z,12.80
2018-12-06T00:55:45.765Z,12.47
2018-12-06T00:58:16.656Z,11.03
2018-12-06T01:00:47.245Z,9.50
2018-12-06T01:03:19.142Z,9.20
2018-12-06T01:05:49.694Z,9.10
2018-12-06T01:08:20.284Z,8.10
2018-12-06T01:10:50.974Z,8.30
2018-12-06T01:13:21.990Z,8.03
2018-12-06T01:15:52.555Z,8.97
2018-12-06T01:18:23.614Z,8.73
2018-12-06T01:20:54.198Z,8.50
2018-12-06T01:23:24.765Z,8.70
2018-12-06T01:25:55.325Z,8.47
2018-12-06T01:28:25.953Z,8.80
2018-12-06T01:30:56.506Z,7.73
2018-12-06T01:33:27.086Z,8.90
2018-12-06T01:35:57.651Z,8.03
2018-12-06T01:38:28.238Z,8.43
2018-12-06T01:40:58.803Z,7.97
2018-12-06T01:43:29.393Z,7.50
2018-12-06T01:46:00.227Z,8.10
2018-12-06T01:48:31.471Z,8.57
2018-12-06T01:51:02.031Z,7.83
2018-12-06T01:53:32.590Z,6.77
2018-12-06T01:56:03.161Z,7.50
2018-12-06T01:58:33.705Z,6.70
2018-12-06T02:01:05.250Z,6.77
2018-12-06T02:03:35.802Z,6.07
2018-12-06T02:06:06.650Z,6.07
2018-12-06T02:08:37.198Z,6.33
2018-12-06T02:11:07.797Z,6.10
2018-12-06T02:13:38.346Z,6.30
2018-12-06T02:16:08.957Z,6.40
2018-12-06T02:18:39.539Z,6.60
2018-12-06T02:21:10.114Z,6.17
2018-12-06T02:23:40.675Z,10.73
2018-12-06T02:26:11.631Z,10.43
2018-12-06T02:28:42.194Z,11.13
2018-12-06T02:31:13.084Z,11.23
2018-12-06T02:33:43.883Z,11.50
2018-12-06T02:36:14.460Z,10.90
2018-12-06T02:38:45.045Z,10.87
2018-12-06T02:41:15.892Z,10.60
2018-12-06T02:43:47.962Z,10.80
2018-12-06T02:46:18.580Z,11.30
2018-12-06T02:48:49.468Z,11.27
2018-12-06T02:51:20.155Z,11.90
2018-12-06T02:53:50.869Z,10.60
2018-12-06T02:56:21.553Z,11.60
2018-12-06T02:58:52.155Z,11.33
2018-12-06T03:01:23.127Z,10.37
2018-12-06T03:03:53.995Z,10.27
2018-12-06T03:06:24.619Z,10.93
2018-12-06T03:08:55.598Z,10.27
2018-12-06T03:11:26.171Z,10.63
2018-12-06T03:13:57.101Z,11.27
2018-12-06T03:16:27.912Z,10.80
2018-12-06T03:18:58.721Z,10.80
2018-12-06T03:21:29.303Z,9.73
2018-12-06T03:23:59.877Z,10.80
2018-12-06T03:26:30.445Z,11.30
2018-12-06T03:29:02.598Z,10.70
2018-12-06T03:31:33.595Z,10.50
2018-12-06T03:34:04.872Z,10.63
2018-12-06T03:36:35.450Z,10.50
2018-12-06T03:39:08.473Z,10.20
2018-12-06T03:41:39.273Z,10.47
2018-12-06T03:44:09.867Z,10.40
2018-12-06T03:46:40.447Z,11.10
2018-12-06T03:49:11.033Z,11.17
2018-12-06T03:51:41.607Z,11.43
2018-12-06T03:54:12.684Z,11.50
2018-12-06T03:56:43.303Z,10.83
2018-12-06T03:59:13.881Z,12.80
2018-12-06T04:01:44.470Z,14.83
2018-12-06T04:04:15.058Z,12.53
2018-12-06T04:06:45.619Z,11.13
2018-12-06T04:09:16.269Z,12.07
2018-12-06T04:11:47.398Z,10.63
2018-12-06T04:14:18.043Z,9.90
2018-12-06T04:16:48.682Z,10.50
2018-12-06T04:19:19.325Z,9.13
2018-12-06T04:21:49.939Z,9.70
2018-12-06T04:24:20.930Z,9.23
2018-12-06T04:26:51.554Z,10.87
2018-12-06T04:29:22.219Z,10.73
2018-12-06T04:31:52.879Z,10.60
2018-12-06T04:34:23.592Z,10.70
2018-12-06T04:36:54.771Z,9.37
2018-12-06T04:39:25.460Z,9.93
2018-12-06T04:41:56.029Z,9.43
2018-12-06T04:44:26.731Z,8.33
2018-12-06T04:46:57.539Z,8.20
2018-12-06T04:49:28.311Z,8.93
2018-12-06T04:51:58.949Z,8.03
2018-12-06T04:54:29.642Z,10.40
2018-12-06T04:57:00.221Z,14.00
2018-12-06T04:59:30.841Z,10.93
2018-12-06T05:02:02.297Z,13.77
2018-12-06T05:04:32.820Z,12.90
2018-12-06T05:07:03.851Z,11.70
2018-12-06T05:09:34.450Z,9.20
2018-12-06T05:12:05.477Z,11.23
2018-12-06T05:14:36.043Z,9.80
2018-12-06T05:17:06.821Z,10.97
2018-12-06T05:19:37.388Z,9.50
2018-12-06T05:22:07.985Z,9.93
2018-12-06T05:24:38.547Z,12.07
2018-12-06T05:27:09.512Z,11.60
2018-12-06T05:29:40.089Z,10.70
2018-12-06T05:32:10.697Z,10.07
2018-12-06T05:34:41.268Z,10.17
2018-12-06T05:37:11.987Z,10.90
2018-12-06T05:39:43.567Z,11.00
2018-12-06T05:42:14.209Z,10.77
2018-12-06T05:44:44.822Z,10.90
2018-12-06T05:47:15.496Z,11.60
2018-12-06T05:49:46.300Z,11.53
2018-12-06T05:52:16.940Z,9.93
2018-12-06T05:54:47.514Z,10.87
2018-12-06T05:57:18.098Z,10.93
2018-12-06T05:59:49.733Z,10.63
2018-12-06T06:02:20.359Z,10.70
2018-12-06T06:04:51.002Z,10.87
2018-12-06T06:07:21.669Z,11.03
2018-12-06T06:09:52.402Z,11.03
2018-12-06T06:12:23.058Z,11.83
2018-12-06T06:14:53.794Z,12.90
2018-12-06T06:17:24.550Z,11.23
2018-12-06T06:19:55.845Z,12.60
2018-12-06T06:22:29.742Z,11.90
2018-12-06T06:25:00.307Z,13.03
2018-12-06T06:27:30.986Z,13.00
2018-12-06T06:30:01.599Z,13.50
2018-12-06T06:32:32.441Z,13.30
2018-12-06T06:35:03.050Z,13.00
2018-12-06T06:37:33.622Z,12.63
2018-12-06T06:40:04.563Z,12.53
2018-12-06T06:42:36.194Z,13.07
2018-12-06T06:45:07.818Z,12.63
2018-12-06T06:47:38.435Z,12.03
2018-12-06T06:50:09.571Z,13.13
2018-12-06T06:52:41.598Z,12.53
2018-12-06T06:55:12.131Z,12.17
2018-12-06T06:57:42.750Z,13.10
2018-12-06T07:00:14.706Z,12.83
2018-12-06T07:02:45.273Z,13.67
2018-12-06T07:05:15.845Z,15.30
2018-12-06T07:07:46.505Z,16.13
2018-12-06T07:10:17.176Z,14.90
2018-12-06T07:12:48.215Z,14.23
2018-12-06T07:15:19.108Z,12.50
2018-12-06T07:17:52.596Z,11.90
2018-12-06T07:20:23.198Z,11.83
2018-12-06T07:22:54.609Z,12.93
2018-12-06T07:25:25.214Z,12.00
2018-12-06T07:27:55.773Z,12.60
2018-12-06T07:30:26.492Z,12.50
2018-12-06T07:32:57.019Z,12.07
2018-12-06T07:35:27.845Z,12.20
2018-12-06T07:37:58.461Z,12.00
2018-12-06T07:40:29.334Z,11.03
2018-12-06T07:43:00.039Z,11.47
2018-12-06T07:45:30.695Z,12.23
2018-12-06T07:48:01.398Z,11.70
2018-12-06T07:50:32.074Z,13.80
2018-12-06T07:53:02.661Z,12.30
2018-12-06T07:55:34.123Z,12.73
2018-12-06T07:58:04.746Z,12.97
2018-12-06T08:00:35.322Z,10.57
2018-12-06T08:03:06.009Z,11.90
2018-12-06T08:05:36.861Z,11.70
2018-12-06T08:08:08.214Z,12.30
2018-12-06T08:10:38.875Z,12.27
2018-12-06T08:13:09.458Z,12.10
2018-12-06T08:15:42.191Z,14.70
2018-12-06T08:18:12.796Z,12.53
2018-12-06T08:20:43.419Z,12.67
2018-12-06T08:23:14.015Z,15.90
2018-12-06T08:25:45.175Z,12.73
2018-12-06T08:28:15.869Z,12.13
2018-12-06T08:30:47.410Z,13.20
2018-12-06T08:33:17.964Z,26.20
2018-12-06T08:35:48.542Z,14.67
2018-12-06T08:38:19.163Z,14.10
2018-12-06T08:40:51.422Z,15.18
2018-12-06T08:43:21.997Z,16.30
2018-12-06T08:45:52.615Z,15.73
2018-12-06T08:48:23.182Z,15.90
2018-12-06T08:50:53.860Z,16.60
2018-12-06T08:53:24.678Z,19.40
2018-12-06T08:55:55.304Z,17.37
2018-12-06T08:58:25.894Z,17.97
2018-12-06T09:00:56.502Z,19.37
2018-12-06T09:03:27.826Z,24.03
2018-12-06T09:05:58.574Z,19.50
2018-12-06T09:08:32.435Z,20.00
2018-12-06T09:11:03.039Z,16.10
2018-12-06T09:13:34.307Z,15.50
2018-12-06T09:16:05.526Z,14.57
2018-12-06T09:18:36.190Z,15.77
2018-12-06T09:21:06.811Z,16.00
2018-12-06T09:23:37.598Z,20.63
2018-12-06T09:26:10.582Z,16.30
2018-12-06T09:28:42.171Z,14.83
2018-12-06T09:31:12.949Z,16.27
2018-12-06T09:34:00.456Z,14.87
2018-12-06T09:36:32.531Z,19.57
2018-12-06T09:39:05.330Z,23.97
2018-12-06T09:41:36.131Z,16.93
2018-12-06T09:44:07.302Z,18.67
2018-12-06T09:46:38.092Z,16.00
2018-12-06T09:49:08.815Z,22.80
2018-12-06T09:51:39.707Z,18.33
2018-12-06T09:54:11.429Z,15.80
2018-12-06T09:56:42.178Z,13.67
2018-12-06T09:59:13.083Z,17.07
2018-12-06T10:01:44.307Z,18.07
2018-12-06T10:04:14.883Z,15.43
2018-12-06T10:06:45.587Z,17.63
2018-12-06T10:09:17.333Z,20.73
2018-12-06T10:11:47.919Z,21.73
2018-12-06T10:14:19.709Z,25.10
2018-12-06T10:16:50.686Z,18.23
2018-12-06T10:19:21.267Z,17.17
2018-12-06T10:21:51.978Z,13.90
2018-12-06T10:24:22.889Z,14.87
2018-12-06T10:26:53.722Z,16.20
2018-12-06T10:29:24.366Z,18.83
2018-12-06T10:31:54.998Z,15.90
2018-12-06T10:34:25.607Z,17.20
2018-12-06T10:36:56.373Z,16.03
2018-12-06T10:39:27.006Z,16.37
2018-12-06T10:41:57.950Z,15.23
2018-12-06T10:44:31.619Z,15.97
2018-12-06T10:47:02.899Z,15.50
2018-12-06T10:49:33.494Z,17.80
2018-12-06T10:52:04.981Z,14.57
2018-12-06T10:54:35.595Z,18.43
2018-12-06T10:57:06.855Z,22.33
2018-12-06T10:59:38.300Z,19.00
2018-12-06T11:02:14.058Z,15.43
2018-12-06T11:04:44.662Z,15.53
2018-12-06T11:07:15.283Z,14.07
2018-12-06T11:09:45.862Z,14.40
2018-12-06T11:12:16.578Z,14.37
2018-12-06T11:14:47.859Z,13.03
2018-12-06T11:17:18.437Z,14.17
2018-12-06T11:19:49.242Z,14.43
2018-12-06T11:22:20.059Z,13.17
2018-12-06T11:24:50.659Z,12.93
2018-12-06T11:27:22.298Z,13.33
2018-12-06T11:30:34.842Z,13.37
2018-12-06T11:33:06.949Z,13.80
2018-12-06T11:35:37.533Z,13.33
2018-12-06T11:38:08.614Z,13.10
2018-12-06T11:40:39.219Z,14.40
2018-12-06T11:43:10.297Z,13.53
2018-12-06T11:45:41.168Z,13.63
2018-12-06T11:48:11.798Z,13.07
2018-12-06T11:50:42.620Z,14.07
2018-12-06T11:53:13.507Z,13.53
2018-12-06T11:55:44.146Z,14.80
2018-12-06T11:58:14.752Z,14.30
2018-12-06T12:00:45.664Z,14.30
2018-12-06T12:03:16.487Z,14.47
2018-12-06T12:05:47.181Z,15.03
2018-12-06T12:08:17.840Z,14.07
2018-12-06T12:10:48.624Z,13.93
2018-12-06T12:13:22.286Z,16.03
2018-12-06T12:15:54.260Z,14.33
2018-12-06T12:18:24.852Z,14.20
2018-12-06T12:20:56.456Z,15.20
2018-12-06T12:23:27.809Z,16.93
2018-12-06T12:25:58.741Z,20.03
2018-12-06T12:28:29.398Z,31.93
2018-12-06T12:31:00.035Z,23.07
2018-12-06T12:33:30.693Z,18.47
2018-12-06T12:36:01.306Z,16.57
2018-12-06T12:38:31.889Z,13.60
2018-12-06T12:41:02.554Z,14.10
2018-12-06T12:43:33.137Z,12.40
2018-12-06T12:46:03.746Z,10.83
2018-12-06T12:48:34.342Z,9.27
2018-12-06T12:51:05.485Z,9.73
2018-12-06T12:53:36.230Z,9.10
2018-12-06T12:56:06.931Z,9.50
2018-12-06T12:58:37.524Z,8.97
2018-12-06T13:01:08.295Z,9.17
2018-12-06T13:03:38.890Z,8.93
2018-12-06T13:06:10.465Z,8.80
2018-12-06T13:08:41.027Z,8.90
2018-12-06T13:11:11.635Z,9.50
2018-12-06T13:13:42.203Z,12.57
2018-12-06T13:16:13.082Z,8.57
2018-12-06T13:18:44.066Z,7.83
2018-12-06T13:21:14.661Z,16.57
2018-12-06T13:23:45.255Z,11.20
2018-12-06T13:26:15.846Z,13.20
2018-12-06T13:28:47.400Z,16.00
2018-12-06T13:31:17.994Z,13.27
2018-12-06T13:33:48.629Z,23.10
2018-12-06T13:36:19.686Z,16.53
2018-12-06T13:38:50.351Z,9.47
2018-12-06T13:41:20.975Z,11.57
2018-12-06T13:43:52.147Z,10.50
2018-12-06T13:46:23.266Z,13.13
2018-12-06T13:48:54.410Z,16.43
2018-12-06T13:51:25.139Z,17.97
2018-12-06T13:53:56.661Z,13.73
2018-12-06T13:56:27.375Z,13.10
2018-12-06T13:58:58.631Z,12.60
2018-12-06T14:01:29.458Z,11.43
2018-12-06T14:04:00.343Z,10.10
2018-12-06T14:06:31.047Z,10.50
2018-12-06T14:09:01.746Z,9.17
2018-12-06T14:11:33.886Z,9.63
2018-12-06T14:14:05.083Z,34.43
2018-12-06T14:16:35.795Z,20.17
2018-12-06T14:19:06.494Z,14.90
2018-12-06T14:21:37.631Z,10.80
2018-12-06T14:24:08.203Z,13.03
2018-12-06T14:26:38.845Z,13.67
2018-12-06T14:29:09.442Z,20.17
2018-12-06T14:31:40.058Z,12.00
2018-12-06T14:34:11.716Z,11.20
2018-12-06T14:36:42.382Z,14.10
2018-12-06T14:39:12.972Z,16.03
2018-12-06T14:41:43.582Z,16.70
2018-12-06T14:44:14.237Z,12.80
2018-12-06T14:46:45.237Z,13.13
2018-12-06T14:49:16.172Z,13.10
2018-12-06T14:51:47.096Z,12.00
2018-12-06T14:54:18.886Z,12.80
2018-12-06T14:56:50.002Z,12.03
2018-12-06T14:59:22.735Z,14.13
2018-12-06T15:01:53.717Z,16.60
2018-12-06T15:04:24.443Z,13.40
2018-12-06T15:06:55.784Z,13.60
2018-12-06T15:09:27.522Z,13.50
2018-12-06T15:11:58.127Z,14.83
2018-12-06T15:14:28.805Z,15.70
2018-12-06T15:17:00.721Z,14.73
2018-12-06T15:19:31.586Z,15.73
2018-12-06T15:22:02.177Z,14.60
2018-12-06T15:24:33.176Z,12.30
2018-12-06T15:27:03.759Z,12.67
2018-12-06T15:29:34.409Z,25.17
2018-12-06T15:32:05.711Z,49.70
2018-12-06T15:34:37.133Z,34.67
2018-12-06T15:37:07.867Z,19.43
2018-12-06T15:39:38.707Z,30.30
2018-12-06T15:42:09.321Z,19.50
2018-12-06T15:44:39.956Z,19.40
2018-12-06T15:47:10.694Z,14.77
2018-12-06T15:49:41.310Z,13.43
2018-12-06T15:52:11.924Z,12.67
2018-12-06T15:54:42.896Z,13.97
2018-12-06T15:57:13.823Z,15.33
2018-12-06T15:59:44.470Z,16.73
2018-12-06T16:02:15.600Z,17.90
2018-12-06T16:04:46.254Z,17.73
2018-12-06T16:07:16.970Z,16.33
2018-12-06T16:09:47.591Z,15.80
2018-12-06T16:12:18.181Z,16.80
2018-12-06T16:14:48.886Z,15.10
2018-12-06T16:17:21.521Z,16.50
2018-12-06T16:19:52.227Z,15.60
2018-12-06T16:22:22.892Z,15.83
2018-12-06T16:24:53.638Z,21.13
2018-12-06T16:27:24.230Z,22.87
2018-12-06T16:29:55.743Z,17.40
2018-12-06T16:32:26.579Z,16.80
2018-12-06T16:34:57.199Z,14.90
2018-12-06T16:37:27.878Z,16.63
2018-12-06T16:39:58.654Z,21.03
2018-12-06T16:42:29.391Z,17.00
2018-12-06T16:45:00.522Z,14.10
2018-12-06T16:47:31.401Z,16.67
2018-12-06T16:50:02.093Z,14.00
2018-12-06T16:52:32.814Z,17.63
2018-12-06T16:55:03.457Z,23.90
2018-12-06T16:57:35.753Z,16.73
2018-12-06T17:00:14.579Z,18.33
2018-12-06T17:02:46.420Z,13.47
2018-12-06T17:05:17.165Z,11.40
2018-12-06T17:07:48.830Z,11.07
2018-12-06T17:10:19.431Z,9.77
2018-12-06T17:12:50.152Z,10.40
2018-12-06T17:15:20.788Z,10.77
2018-12-06T17:17:51.414Z,11.93
2018-12-06T17:20:22.159Z,11.23
2018-12-06T17:22:52.826Z,11.77
2018-12-06T17:25:23.419Z,10.93
2018-12-06T17:27:54.534Z,9.87
2018-12-06T17:30:25.151Z,10.90
2018-12-06T17:32:56.275Z,11.30
2018-12-06T17:35:28.071Z,17.37
2018-12-06T17:37:59.231Z,26.33
2018-12-06T17:40:30.479Z,20.80
2018-12-06T17:43:01.122Z,19.70
2018-12-06T17:45:32.684Z,21.10
2018-12-06T17:48:04.119Z,19.50
2018-12-06T17:50:35.154Z,22.27
2018-12-06T17:53:05.853Z,41.90
2018-12-06T17:55:49.978Z,32.73
2018-12-06T17:58:21.305Z,39.20
2018-12-06T18:00:52.159Z,34.30
2018-12-06T18:03:22.815Z,32.70
2018-12-06T18:05:53.523Z,22.53
2018-12-06T18:08:24.265Z,35.30
2018-12-06T18:10:55.097Z,26.80
2018-12-06T18:13:25.830Z,25.83
2018-12-06T18:15:56.446Z,27.57
2018-12-06T18:18:27.088Z,25.70
2018-12-06T18:20:58.969Z,24.17
2018-12-06T18:23:29.590Z,19.97
2018-12-06T18:26:00.211Z,19.70
2018-12-06T18:28:30.839Z,17.70
2018-12-06T18:31:01.529Z,18.93
2018-12-06T18:33:32.767Z,16.77
2018-12-06T18:36:03.494Z,10.03
2018-12-06T18:38:34.280Z,11.43
2018-12-06T18:41:05.674Z,11.40
2018-12-06T18:43:36.590Z,10.90
2018-12-06T18:46:07.211Z,13.93
2018-12-06T18:48:38.192Z,11.70
2018-12-06T18:51:08.767Z,7.50
2018-12-06T18:53:40.096Z,7.40
2018-12-06T18:56:11.986Z,11.43
2018-12-06T18:58:42.642Z,14.07
2018-12-06T19:01:13.660Z,13.40
2018-12-06T19:03:44.270Z,11.83
2018-12-06T19:06:15.269Z,15.50
2018-12-06T19:08:46.336Z,10.00
2018-12-06T19:11:17.785Z,10.67
2018-12-06T19:13:49.113Z,11.33
2018-12-06T19:16:20.282Z,81.60
2018-12-06T19:18:51.059Z,22.90
2018-12-06T19:21:22.313Z,23.83
2018-12-06T19:23:53.473Z,10.60
2018-12-06T19:26:24.634Z,9.50
2018-12-06T19:28:55.362Z,11.13
2018-12-06T19:31:26.710Z,10.10
2018-12-06T19:33:57.769Z,12.50
2018-12-06T19:36:29.106Z,10.70
2018-12-06T19:39:00.125Z,13.57
2018-12-06T19:41:30.790Z,20.53
2018-12-06T19:44:01.929Z,23.17
2018-12-06T19:46:32.940Z,20.33
2018-12-06T19:49:03.573Z,19.03
2018-12-06T19:51:34.967Z,17.03
2018-12-06T19:54:06.417Z,17.40
2018-12-06T19:56:37.594Z,24.00
2018-12-06T19:59:08.704Z,15.57
2018-12-06T20:01:39.745Z,17.10
2018-12-06T20:04:10.826Z,10.87
2018-12-06T20:06:42.225Z,12.73
2018-12-06T20:09:12.814Z,13.50
2018-12-06T20:11:43.917Z,29.00
2018-12-06T20:14:14.811Z,17.70
2018-12-06T20:16:46.842Z,19.13
2018-12-06T20:19:17.902Z,16.70
2018-12-06T20:21:48.729Z,53.50
2018-12-06T20:24:19.334Z,9.90
2018-12-06T20:26:50.515Z,19.20
2018-12-06T20:29:21.545Z,11.37
2018-12-06T20:31:52.652Z,12.13
2018-12-06T20:34:23.305Z,13.10
2018-12-06T20:36:54.155Z,11.87
2018-12-06T20:39:25.159Z,9.53
2018-12-06T20:41:55.890Z,7.20
2018-12-06T20:44:27.710Z,9.80
2018-12-06T20:46:58.342Z,6.97
2018-12-06T20:49:29.005Z,7.03
2018-12-06T20:52:01.251Z,6.93
2018-12-06T20:54:32.572Z,6.13
2018-12-06T20:57:03.248Z,6.13
2018-12-06T20:59:34.118Z,7.63
2018-12-06T21:02:05.698Z,8.40
2018-12-06T21:04:36.792Z,7.73
2018-12-06T21:07:07.531Z,8.10
2018-12-06T21:09:39.039Z,7.10
2018-12-06T21:12:10.290Z,7.33
2018-12-06T21:14:40.888Z,7.57
2018-12-06T21:17:12.120Z,8.27
2018-12-06T21:19:42.729Z,8.57
2018-12-06T21:22:13.496Z,9.57
2018-12-06T21:24:44.546Z,10.20
2018-12-06T21:27:15.337Z,9.70
2018-12-06T21:29:45.972Z,11.60
2018-12-06T21:32:16.613Z,10.70
2018-12-06T21:34:48.363Z,8.80
2018-12-06T21:37:19.018Z,6.30
2018-12-06T21:39:51.330Z,6.10
2018-12-06T21:42:22.509Z,4.37
2018-12-06T21:44:53.142Z,3.30
2018-12-06T21:47:25.803Z,8.33
2018-12-06T21:49:57.378Z,10.53
2018-12-06T21:52:27.993Z,10.00
2018-12-06T21:54:58.641Z,9.83
2018-12-06T21:57:29.230Z,11.40
2018-12-06T21:59:59.834Z,7.23
2018-12-06T22:02:30.433Z,4.63
2018-12-06T22:05:01.571Z,6.90
2018-12-06T22:07:32.652Z,7.70
2018-12-06T22:10:03.280Z,6.10
2018-12-06T22:12:33.865Z,6.00
2018-12-06T22:15:05.820Z,6.23
2018-12-06T22:17:36.473Z,6.50
2018-12-06T22:20:07.518Z,4.60
2018-12-06T22:22:38.136Z,5.73
2018-12-06T22:25:09.584Z,5.63
2018-12-06T22:27:40.174Z,4.60
2018-12-06T22:30:11.798Z,3.80
2018-12-06T22:32:42.685Z,4.60
2018-12-06T22:35:13.274Z,4.10
2018-12-06T22:37:43.978Z,6.00
2018-12-06T22:40:14.566Z,3.90
2018-12-06T22:42:45.569Z,5.43
2018-12-06T22:46:27.248Z,5.67
2018-12-06T22:48:57.839Z,4.30
2018-12-06T22:51:30.747Z,3.13
2018-12-06T22:54:01.403Z,3.73
2018-12-06T22:56:31.998Z,5.00
2018-12-06T22:59:03.683Z,4.00
2018-12-06T23:01:40.512Z,4.10
2018-12-06T23:04:11.387Z,3.67
2018-12-06T23:06:41.986Z,3.77
2018-12-06T23:09:12.628Z,3.63
2018-12-06T23:11:43.215Z,2.87
2018-12-06T23:14:14.511Z,2.90
2018-12-06T23:16:45.225Z,3.67
2018-12-06T23:19:15.885Z,4.40
2018-12-06T23:21:47.407Z,6.70
2018-12-06T23:24:18.794Z,17.27
2018-12-06T23:26:49.382Z,4.67
2018-12-06T23:32:38.471Z,13.00
2018-12-06T23:35:09.487Z,9.73
2018-12-06T23:37:40.095Z,4.60
2018-12-06T23:40:12.001Z,14.23
2018-12-06T23:42:42.990Z,19.50
2018-12-06T23:45:14.187Z,4.63
2018-12-06T23:47:44.806Z,4.40
2018-12-06T23:50:16.206Z,2.70
2018-12-06T23:52:46.839Z,2.93
2018-12-06T23:55:17.456Z,3.00
2018-12-06T23:57:49.144Z,3.50
